Flight Track Log - Related Links

Times and Time Zones

All times are in EST time to prevent confusion due to time zone crossing. See the PDT4207 flight status page for this flight to view local times or setup timezone preferences in your user account.

Time Position Orientation Groundspeed Altitude Reporting Facility
EST Latitude Longitude Course Direction KTS MPH feet Rate Location/Type
Sat 09:57:00 PM 39.9000 -75.2333 311° West 123 142 500  Level Philadelphia TRACON
Sat 09:57:42 PM 39.9000 -75.2667 270° West 123 142 1,400 1,294 Climbing Philadelphia TRACON
Sat 09:58:42 PM 39.9333 -75.3000 323° Northwest 150 173 2,700 1,300 Climbing Philadelphia TRACON
Sat 09:59:00 PM 40.0228 -75.3728 323° Northwest  Level FlightAware Approximate
Sat 09:59:42 PM 39.9500 -75.3500 294° West 157 181 4,000  Level Philadelphia TRACON
Sat 10:00:00 PM 40.0754 -75.4210 339° North  Level FlightAware Approximate
Sat 10:00:16 PM 39.9653 -75.3778 306° West 171 197 4,800  Level New York Center
Sat 10:01:00 PM 40.1228 -75.4728 323° Northwest  Level FlightAware Approximate
Sat 10:01:16 PM 40.0061 -75.3994 338° Northwest 179 206 6,300  Level New York Center
Sat 10:02:00 PM 40.1757 -75.5135 311° West  Level FlightAware Approximate
Sat 10:02:16 PM 40.0492 -75.4186 341° North 161 185 7,900  Level New York Center
Sat 10:03:16 PM 40.0814 -75.4425 330° Northwest 142 163 9,300 1,300 Climbing New York Center
Sat 10:04:16 PM 40.1200 -75.4694 332° Northwest 137 158 10,500 1,100 Climbing New York Center
Sat 10:05:16 PM 40.1503 -75.4933 329° Northwest 137 158 11,500 1,000 Climbing New York Center
Sat 10:06:16 PM 40.1800 -75.5306 316° Northwest 132 152 12,500 1,000 Climbing New York Center
Sat 10:07:16 PM 40.2103 -75.5572 326° Northwest 132 152 13,500 750 Climbing New York Center
Sat 10:08:16 PM 40.2383 -75.5864 322° Northwest 144 166 14,000 250 Climbing New York Center
Sat 10:09:16 PM 40.2653 -75.6400 303° West 149 171 14,000  Level New York Center
Sat 10:10:16 PM 40.2986 -75.6886 312° West 171 197 14,000  Level New York Center
Sat 10:11:16 PM 40.3364 -75.7347 317° Northwest 178 205 14,000  Level New York Center
Sat 10:12:16 PM 40.3633 -75.7831 306° West 178 205 14,000  Level New York Center
Sat 10:13:16 PM 40.3967 -75.8344 310° West 183 211 14,000  Level New York Center
Sat 10:14:16 PM 40.4650 -75.8450 353° North 196 226 14,000  Level New York Center
Sat 10:15:16 PM 40.5272 -75.8550 353° North 210 242 14,000  Level New York Center
Sat 10:16:16 PM 40.5917 -75.8572 359° North 218 251 14,000  Level New York Center
Sat 10:17:16 PM 40.6522 -75.8506 North 229 264 14,000  Level New York Center
Sat 10:18:17 PM 40.7164 -75.8608 353° North 235 270 14,000  Level New York Center
Sat 10:19:16 PM 40.7864 -75.8797 348° North 230 265 14,000 50 Level New York Center
Sat 10:20:16 PM 40.8531 -75.8819 359° North 236 272 14,100 50 Climbing New York Center
Sat 10:21:16 PM 40.9114 -75.8836 359° North 236 272 14,100  Level New York Center
Sat 10:22:16 PM 40.9758 -75.8886 357° North 236 272 14,100 -50 Level New York Center
Sat 10:23:16 PM 41.0422 -75.8908 359° North 236 272 14,000 -50 Descending New York Center
Sat 10:24:16 PM 41.1172 -75.8908 360° North 236 272 14,000  Level New York Center
Sat 10:25:16 PM 41.1839 -75.8958 357° North 236 272 14,000  Level New York Center
Sat 10:26:16 PM 41.2500 -75.9039 355° North 236 272 14,000  Level New York Center
Sat 10:27:17 PM 41.3167 -75.9089 357° North 236 272 14,000  Level New York Center
Sat 10:28:16 PM 41.3850 -75.9142 357° North 236 272 14,000  Level New York Center
Sat 10:29:16 PM 41.4492 -75.9244 353° North 236 272 14,000  Level New York Center
Sat 10:30:16 PM 41.5156 -75.9294 357° North 236 272 14,000 -200 Level New York Center
Sat 10:31:16 PM 41.5864 -75.9322 358° North 242 278 13,600 -900 Descending New York Center
Sat 10:32:16 PM 41.6528 -75.9375 357° North 257 296 12,200 -1,400 Descending New York Center
Sat 10:33:16 PM 41.7250 -75.9486 353° North 257 296 10,800 -1,500 Descending New York Center
Sat 10:34:16 PM 41.8058 -75.9578 355° North 257 296 9,200 -1,450 Descending New York Center
Sat 10:35:16 PM 41.8825 -75.9664 355° North 263 303 7,900 -1,350 Descending New York Center
Sat 10:36:16 PM 41.9531 -75.9747 355° North 263 303 6,500 -1,500 Descending New York Center
Sat 10:37:16 PM 42.0156 -75.9714 North 250 288 4,900 -1,200 Descending New York Center
Sat 10:38:16 PM 42.0744 -75.9592 North 229 264 4,100 -750 Descending New York Center
Sat 10:39:16 PM 42.1225 -75.9544 North 200 230 3,400 -750 Descending New York Center
Sat 10:40:16 PM 42.1639 -75.9578 357° North 164 189 2,600 -800 Descending New York Center

Login

Don't have an account? Register now (free) for customized features, flight alerts, and more!